Time;durP1;ratioP1;P1;durP2;ratioP2;P2;SDS_P1;SDS_P2;PMS_P1;PMS_P2;Temp;Humidity;BMP_temperature;BMP_pressure;BME280_temperature;BME280_humidity;BME280_pressure;Samples;Min_cycle;Max_cycle;Signal;HPM_P1;HPM_P2
2021/05/23 00:02:24;;;;;;;1999.90;999.90;;;;;;;11.61;83.89;97856.72;5031666;28;20050;-65
2021/05/23 00:04:51;;;;;;;1999.90;999.90;;;;;;;11.74;83.05;97854.78;5031109;28;20056;-65
2021/05/23 00:07:25;;;;;;;1999.90;999.90;;;;;;;11.63;83.62;97860.75;5030718;28;20393;-65
2021/05/23 00:09:53;;;;;;;1999.90;999.90;;;;;;;11.97;82.25;97858.72;5029659;28;20666;-65
2021/05/23 00:12:20;;;;;;;1999.90;999.90;;;;;;;11.99;82.18;97850.06;5030284;28;20038;-65
2021/05/23 00:14:46;;;;;;;1999.90;999.90;;;;;;;11.82;82.27;97856.63;5028487;28;20053;-65
2021/05/23 00:17:13;;;;;;;1999.90;999.90;;;;;;;11.90;82.39;97858.47;5030968;28;20065;-65
2021/05/23 00:19:39;;;;;;;1999.90;999.90;;;;;;;12.07;81.67;97856.66;5029872;28;20056;-65
2021/05/23 00:22:06;;;;;;;1999.90;999.90;;;;;;;12.41;80.54;97849.78;5029409;28;20426;-65
2021/05/23 00:24:33;;;;;;;1999.90;999.90;;;;;;;12.00;81.52;97842.56;5031601;28;20057;-65
2021/05/23 00:26:59;;;;;;;1999.90;999.90;;;;;;;11.81;83.00;97850.28;5029053;28;20338;-65
2021/05/23 00:29:26;;;;;;;1999.90;999.90;;;;;;;11.63;83.21;97848.88;5030836;28;20046;-65
2021/05/23 00:31:53;;;;;;;1999.90;999.90;;;;;;;11.95;82.29;97849.97;5030844;28;20096;-65
2021/05/23 00:34:20;;;;;;;1999.90;999.90;;;;;;;12.11;81.30;97852.03;5030085;28;20057;-65
2021/05/23 00:36:46;;;;;;;1999.90;999.90;;;;;;;11.88;82.39;97849.72;5030984;28;20049;-65
2021/05/23 00:39:13;;;;;;;1999.90;999.90;;;;;;;11.84;82.25;97846.00;5030904;28;20061;-65
2021/05/23 00:41:40;;;;;;;1999.90;999.90;;;;;;;11.90;81.79;97846.59;5029793;28;20374;-65
2021/05/23 00:44:06;;;;;;;1999.90;999.90;;;;;;;11.83;82.44;97841.63;5029930;28;20057;-65
2021/05/23 00:46:33;;;;;;;1999.90;999.90;;;;;;;11.70;82.67;97842.75;5030310;28;20049;-65
2021/05/23 00:48:59;;;;;;;1999.90;999.90;;;;;;;11.43;84.02;97839.50;5028178;28;20053;-65
2021/05/23 00:51:26;;;;;;;1999.90;999.90;;;;;;;11.48;84.10;97841.25;5031467;28;20397;-65
2021/05/23 00:53:52;;;;;;;1999.90;999.90;;;;;;;11.71;82.99;97841.63;5030670;28;20366;-65
2021/05/23 00:56:20;;;;;;;1999.90;999.90;;;;;;;11.48;83.85;97839.31;5028410;28;20063;-65
2021/05/23 00:58:47;;;;;;;1999.90;999.90;;;;;;;11.85;82.40;97846.81;5030771;28;20107;-65
2021/05/23 01:01:45;;;;;;;1999.90;999.90;;;;;;;12.06;81.32;97843.94;5030144;28;20053;-65
2021/05/23 01:04:13;;;;;;;1999.90;999.90;;;;;;;11.98;81.82;97848.44;5028358;28;20041;-65
2021/05/23 01:06:39;;;;;;;1999.90;999.90;;;;;;;11.98;81.15;97848.44;5030613;28;20063;-65
2021/05/23 01:09:08;;;;;;;1999.90;999.90;;;;;;;11.81;81.40;97835.63;5030180;28;20204;-65
2021/05/23 01:11:34;;;;;;;1999.90;999.90;;;;;;;11.77;82.33;97854.88;5032811;28;20046;-65
2021/05/23 01:14:41;;;;;;;1999.90;999.90;;;;;;;11.88;81.71;97852.47;5034198;28;20115;-65
2021/05/23 01:17:11;;;;;;;1999.90;999.90;;;;;;;11.85;81.75;97844.03;5034551;28;20103;-66
2021/05/23 01:19:55;;;;;;;1999.90;999.90;;;;;;;11.86;81.19;97845.66;5031888;28;20405;-65
2021/05/23 01:22:27;;;;;;;1999.90;999.90;;;;;;;11.89;81.49;97837.44;5033980;28;20320;-65
2021/05/23 01:25:10;;;;;;;1999.90;999.90;;;;;;;11.42;83.40;97840.69;5034464;28;20057;-65
2021/05/23 01:27:38;;;;;;;1999.90;999.90;;;;;;;11.57;82.87;97853.84;5033736;28;20064;-65
2021/05/23 01:30:09;;;;;;;1999.90;999.90;;;;;;;11.84;82.13;97854.31;5033430;28;20435;-65
2021/05/23 01:32:36;;;;;;;1999.90;999.90;;;;;;;11.53;82.76;97850.13;5034434;28;20442;-65
2021/05/23 01:35:12;;;;;;;1999.90;999.90;;;;;;;11.58;83.05;97852.69;5033708;28;20396;-65
2021/05/23 01:37:39;;;;;;;1999.90;999.90;;;;;;;11.59;82.72;97848.75;5033488;28;20099;-65
2021/05/23 01:40:06;;;;;;;1999.90;999.90;;;;;;;11.57;82.98;97844.72;5033939;28;20401;-65
2021/05/23 01:42:33;;;;;;;1999.90;999.90;;;;;;;11.52;83.23;97845.78;5033006;28;20046;-65
2021/05/23 01:45:01;;;;;;;1999.90;999.90;;;;;;;11.43;83.52;97845.03;5031621;28;20049;-65
2021/05/23 01:47:27;;;;;;;1999.90;999.90;;;;;;;11.33;83.96;97845.47;5034279;28;20108;-65
2021/05/23 01:49:55;;;;;;;1999.90;999.90;;;;;;;11.19;84.82;97843.03;5032599;28;20060;-65
2021/05/23 01:52:21;;;;;;;1999.90;999.90;;;;;;;11.69;83.02;97846.72;5033343;28;20050;-65
2021/05/23 01:54:48;;;;;;;1999.90;999.90;;;;;;;11.43;83.34;97834.78;5034233;28;20103;-65
2021/05/23 01:57:14;;;;;;;1999.90;999.90;;;;;;;11.36;84.09;97839.25;5033221;28;20053;-65
2021/05/23 01:59:41;;;;;;;1999.90;999.90;;;;;;;11.41;83.58;97837.09;5031641;28;20077;-65
2021/05/23 02:02:08;;;;;;;1999.90;999.90;;;;;;;11.38;84.03;97836.97;5034232;28;20061;-65
2021/05/23 02:04:34;;;;;;;1999.90;999.90;;;;;;;11.22;84.97;97836.81;5031402;28;20042;-65
2021/05/23 02:07:01;;;;;;;1999.90;999.90;;;;;;;11.82;82.43;97842.78;5033949;28;20490;-65
2021/05/23 02:09:27;;;;;;;1999.90;999.90;;;;;;;11.81;82.22;97852.25;5033502;28;20057;-65
2021/05/23 02:11:55;;;;;;;1999.90;999.90;;;;;;;11.85;81.91;97846.81;5032330;28;20056;-65
2021/05/23 02:14:23;;;;;;;1999.90;999.90;;;;;;;11.87;81.67;97859.16;5033327;28;20103;-65
2021/05/23 02:16:54;;;;;;;1999.90;999.90;;;;;;;11.93;81.71;97857.81;5033372;28;20057;-65
2021/05/23 02:19:22;;;;;;;1999.90;999.90;;;;;;;12.11;80.96;97863.91;5032406;28;20098;-65
2021/05/23 02:21:49;;;;;;;1999.90;999.90;;;;;;;12.05;80.91;97859.75;5031615;28;20050;-65
2021/05/23 02:24:16;;;;;;;1999.90;999.90;;;;;;;11.81;82.11;97857.78;5033098;28;20115;-65
2021/05/23 02:26:43;;;;;;;1999.90;999.90;;;;;;;11.57;82.44;97862.16;5032053;28;20108;-65
2021/05/23 02:29:10;;;;;;;1999.90;999.90;;;;;;;11.71;82.55;97869.31;5033353;28;20060;-66
2021/05/23 02:31:37;;;;;;;1999.90;999.90;;;;;;;11.85;82.20;97861.47;5032795;28;20061;-65
2021/05/23 02:34:04;;;;;;;1999.90;999.90;;;;;;;12.07;81.11;97867.72;5031148;28;20050;-66
2021/05/23 02:36:30;;;;;;;1999.90;999.90;;;;;;;11.69;82.38;97866.88;5033796;28;20401;-65
2021/05/23 02:38:56;;;;;;;1999.90;999.90;;;;;;;11.68;81.99;97868.03;5032296;28;20033;-65
2021/05/23 02:41:22;;;;;;;1999.90;999.90;;;;;;;11.66;82.49;97869.56;5032144;28;20312;-65
2021/05/23 02:43:49;;;;;;;1999.90;999.90;;;;;;;11.81;81.84;97866.88;5032084;28;20046;-65
2021/05/23 02:46:16;;;;;;;1999.90;999.90;;;;;;;11.83;82.30;97865.75;5029915;28;20108;-65
2021/05/23 02:48:42;;;;;;;1999.90;999.90;;;;;;;12.07;81.21;97865.78;5032460;28;20107;-65
2021/05/23 02:51:10;;;;;;;1999.90;999.90;;;;;;;12.26;80.15;97865.16;5033308;28;20053;-65
2021/05/23 02:53:37;;;;;;;1999.90;999.90;;;;;;;12.52;79.24;97866.75;5031473;28;20049;-65
2021/05/23 02:56:04;;;;;;;1999.90;999.90;;;;;;;12.69;78.01;97872.00;5032221;28;20108;-65
2021/05/23 02:58:31;;;;;;;1999.90;999.90;;;;;;;12.51;78.59;97870.69;5033010;28;20099;-65
2021/05/23 03:00:57;;;;;;;1999.90;999.90;;;;;;;12.45;79.14;97877.63;5025424;28;20481;-65
2021/05/23 03:03:24;;;;;;;1999.90;999.90;;;;;;;12.69;78.28;97868.44;5031164;28;20049;-65
2021/05/23 03:05:50;;;;;;;1999.90;999.90;;;;;;;12.75;77.58;97871.78;5032308;28;20052;-65
2021/05/23 03:08:17;;;;;;;1999.90;999.90;;;;;;;12.62;78.51;97877.38;5029933;28;20484;-65
2021/05/23 03:10:47;;;;;;;1999.90;999.90;;;;;;;12.76;77.85;97881.69;5027030;28;20049;-65
2021/05/23 03:13:14;;;;;;;1999.90;999.90;;;;;;;12.83;77.44;97882.72;5032383;28;20051;-65
2021/05/23 03:15:41;;;;;;;1999.90;999.90;;;;;;;12.95;76.86;97870.78;5031169;28;20075;-65
2021/05/23 03:18:08;;;;;;;1999.90;999.90;;;;;;;12.96;76.95;97866.81;5031556;28;20046;-66
2021/05/23 03:20:37;;;;;;;1999.90;999.90;;;;;;;12.96;76.71;97875.16;5032228;28;20128;-66
2021/05/23 03:23:04;;;;;;;1999.90;999.90;;;;;;;12.69;77.67;97877.56;5031808;28;20045;-66
2021/05/23 03:25:31;;;;;;;1999.90;999.90;;;;;;;12.88;77.10;97876.13;5030910;28;20045;-66
2021/05/23 03:27:59;;;;;;;1999.90;999.90;;;;;;;12.90;76.94;97873.00;5031786;28;20299;-66
2021/05/23 03:30:32;;;;;;;1999.90;999.90;;;;;;;12.65;78.33;97881.38;5031722;28;20053;-66
2021/05/23 03:32:59;;;;;;;1999.90;999.90;;;;;;;12.79;77.93;97889.34;5032119;28;20057;-66
2021/05/23 03:35:26;;;;;;;1999.90;999.90;;;;;;;13.11;77.14;97876.34;5028949;28;20061;-66
2021/05/23 03:37:54;;;;;;;1999.90;999.90;;;;;;;13.14;77.08;97877.63;5031023;28;20137;-65
2021/05/23 03:40:21;;;;;;;1999.90;999.90;;;;;;;13.21;76.75;97880.59;5031826;28;20057;-65
2021/05/23 03:42:49;;;;;;;1999.90;999.90;;;;;;;13.11;76.89;97875.56;5028741;28;20064;-65
2021/05/23 03:45:18;;;;;;;1999.90;999.90;;;;;;;13.17;76.58;97876.91;5031164;28;20049;-65
2021/05/23 03:47:46;;;;;;;1999.90;999.90;;;;;;;13.26;76.14;97872.00;5031049;28;20089;-65
2021/05/23 03:50:18;;;;;;;1999.90;999.90;;;;;;;13.15;75.93;97865.38;5030844;28;20045;-65
2021/05/23 03:52:46;;;;;;;1999.90;999.90;;;;;;;12.84;77.20;97869.66;5031219;28;20098;-65
2021/05/23 03:55:13;;;;;;;1999.90;999.90;;;;;;;12.99;77.14;97868.88;5031976;28;20400;-65
2021/05/23 03:57:40;;;;;;;1999.90;999.90;;;;;;;13.06;76.64;97881.38;5029372;28;20091;-65
2021/05/23 04:00:10;;;;;;;1999.90;999.90;;;;;;;13.45;75.72;97881.66;5029763;28;20053;-65
2021/05/23 04:02:36;;;;;;;1999.90;999.90;;;;;;;13.54;74.94;97882.31;5031746;28;20123;-65
2021/05/23 04:05:04;;;;;;;1999.90;999.90;;;;;;;13.96;73.66;97889.31;5030591;28;20118;-65
2021/05/23 04:07:30;;;;;;;1999.90;999.90;;;;;;;14.13;72.96;97879.78;5031227;28;20041;-65
2021/05/23 04:09:58;;;;;;;1999.90;999.90;;;;;;;14.17;72.61;97877.88;5031304;28;20053;-65
2021/05/23 04:14:54;;;;;;;1999.90;999.90;;;;;;;14.54;70.90;97866.41;5013948;28;20096;-65
2021/05/23 04:17:20;;;;;;;1999.90;999.90;;;;;;;14.47;71.40;97878.19;5031324;28;20254;-65
2021/05/23 04:19:47;;;;;;;1999.90;999.90;;;;;;;14.64;70.97;97879.78;5030300;28;20430;-65
2021/05/23 04:22:15;;;;;;;1999.90;999.90;;;;;;;14.66;70.93;97884.97;5029954;28;20046;-65
2021/05/23 04:24:41;;;;;;;1999.90;999.90;;;;;;;14.75;70.71;97883.63;5031079;28;20095;-65
2021/05/23 04:27:08;;;;;;;1999.90;999.90;;;;;;;14.59;71.41;97880.06;5022286;28;20476;-65
2021/05/23 04:29:36;;;;;;;1999.90;999.90;;;;;;;14.58;70.91;97884.00;5030207;28;20045;-65
2021/05/23 04:32:05;;;;;;;1999.90;999.90;;;;;;;14.49;71.28;97880.63;5029874;28;20065;-65
2021/05/23 04:34:33;;;;;;;1999.90;999.90;;;;;;;14.18;71.78;97885.88;5030572;28;20041;-65
2021/05/23 04:36:59;;;;;;;1999.90;999.90;;;;;;;14.07;72.77;97882.84;5031684;28;20427;-65
2021/05/23 04:39:26;;;;;;;1999.90;999.90;;;;;;;14.00;73.00;97881.88;5028418;28;20462;-64
2021/05/23 04:41:53;;;;;;;1999.90;999.90;;;;;;;14.28;73.09;97887.31;5030689;28;20049;-65
2021/05/23 04:44:20;;;;;;;1999.90;999.90;;;;;;;14.44;72.20;97881.72;5031294;28;20049;-65
2021/05/23 04:46:47;;;;;;;1999.90;999.90;;;;;;;14.42;72.30;97893.19;5032625;28;20053;-65
2021/05/23 04:49:13;;;;;;;1999.90;999.90;;;;;;;14.50;72.27;97894.16;5033529;28;20045;-65
2021/05/23 04:51:40;;;;;;;1999.90;999.90;;;;;;;14.50;72.23;97885.81;5034460;28;20409;-65
2021/05/23 04:54:06;;;;;;;1999.90;999.90;;;;;;;14.57;72.47;97894.31;5033862;28;20041;-65
2021/05/23 04:56:33;;;;;;;1999.90;999.90;;;;;;;14.72;71.95;97881.56;5033608;28;20192;-65
2021/05/23 04:59:00;;;;;;;1999.90;999.90;;;;;;;14.98;70.62;97882.88;5034937;28;20442;-65
2021/05/23 05:01:26;;;;;;;1999.90;999.90;;;;;;;14.75;70.39;97889.19;5032679;28;20235;-65
2021/05/23 05:03:53;;;;;;;1999.90;999.90;;;;;;;14.58;71.29;97890.34;5034958;28;20107;-65
2021/05/23 05:06:20;;;;;;;1999.90;999.90;;;;;;;14.60;71.04;97887.22;5033875;28;20054;-65
2021/05/23 05:08:46;;;;;;;1999.90;999.90;;;;;;;14.54;71.29;97888.66;5032313;28;20056;-65
2021/05/23 05:11:13;;;;;;;1999.90;999.90;;;;;;;14.50;71.91;97887.78;5033456;28;20050;-65
2021/05/23 05:13:40;;;;;;;1999.90;999.90;;;;;;;14.33;71.83;97889.78;5033941;28;20050;-65
2021/05/23 05:16:08;;;;;;;1999.90;999.90;;;;;;;14.56;71.70;97898.28;5033986;28;20053;-66
2021/05/23 05:18:36;;;;;;;1999.90;999.90;;;;;;;14.61;71.20;97900.00;5034574;28;20045;-65
2021/05/23 05:21:03;;;;;;;1999.90;999.90;;;;;;;14.86;71.03;97899.75;5033812;28;20608;-65
2021/05/23 05:23:30;;;;;;;1999.90;999.90;;;;;;;15.08;70.68;97899.00;5033986;28;20356;-65
2021/05/23 05:25:58;;;;;;;1999.90;999.90;;;;;;;14.99;70.69;97897.59;5035386;28;20049;-66
2021/05/23 05:28:25;;;;;;;1999.90;999.90;;;;;;;15.35;69.36;97901.94;5032678;28;20061;-65
2021/05/23 05:30:51;;;;;;;1999.90;999.90;;;;;;;15.09;69.05;97914.53;5032003;28;20049;-65
2021/05/23 05:33:18;;;;;;;1999.90;999.90;;;;;;;15.21;69.65;97910.78;5034995;28;20056;-65
2021/05/23 05:35:45;;;;;;;1999.90;999.90;;;;;;;15.86;69.06;97911.25;5033603;28;20099;-65
2021/05/23 05:38:13;;;;;;;1999.90;999.90;;;;;;;16.36;67.18;97906.44;5033004;28;20068;-65
2021/05/23 05:40:40;;;;;;;1999.90;999.90;;;;;;;15.77;66.92;97914.25;5034951;28;20045;-66
2021/05/23 05:43:07;;;;;;;1999.90;999.90;;;;;;;15.72;68.40;97918.13;5033606;28;20389;-65
2021/05/23 05:45:33;;;;;;;1999.90;999.90;;;;;;;15.58;67.02;97910.31;5021359;28;20057;-65
2021/05/23 05:48:00;;;;;;;1999.90;999.90;;;;;;;15.15;68.61;97909.47;5034126;28;20053;-65
2021/05/23 05:50:26;;;;;;;1999.90;999.90;;;;;;;15.34;68.18;97905.06;5031638;28;20103;-65
2021/05/23 05:52:53;;;;;;;1999.90;999.90;;;;;;;15.30;68.96;97911.38;5032205;28;20050;-65
2021/05/23 05:55:20;;;;;;;1999.90;999.90;;;;;;;15.33;68.78;97918.19;5033683;28;20111;-65
2021/05/23 05:57:46;;;;;;;1999.90;999.90;;;;;;;15.31;68.73;97909.41;5031694;28;20049;-65
2021/05/23 06:00:13;;;;;;;1999.90;999.90;;;;;;;15.17;69.74;97917.47;5032673;28;20332;-66
2021/05/23 06:02:40;;;;;;;1999.90;999.90;;;;;;;15.77;68.59;97920.59;5032499;28;20362;-66
2021/05/23 06:05:07;;;;;;;1999.90;999.90;;;;;;;15.49;68.92;97926.47;5033206;28;20096;-65
2021/05/23 06:07:35;;;;;;;1999.90;999.90;;;;;;;15.82;68.17;97925.91;5033503;28;20049;-65
2021/05/23 06:10:02;;;;;;;1999.90;999.90;;;;;;;16.10;67.51;97927.56;5033259;28;20048;-66
2021/05/23 06:12:29;;;;;;;1999.90;999.90;;;;;;;16.29;67.81;97914.75;5032925;28;20045;-65
2021/05/23 06:14:56;;;;;;;1999.90;999.90;;;;;;;16.10;66.05;97922.00;5033904;28;20316;-66
2021/05/23 06:17:22;;;;;;;1999.90;999.90;;;;;;;15.84;68.24;97933.91;5031057;28;20146;-65
2021/05/23 06:19:49;;;;;;;1999.90;999.90;;;;;;;15.86;67.50;97930.75;5030772;28;20095;-65
2021/05/23 06:22:16;;;;;;;1999.90;999.90;;;;;;;16.34;66.89;97920.78;5034078;28;20045;-65
2021/05/23 06:24:42;;;;;;;1999.90;999.90;;;;;;;16.08;66.93;97923.53;5032620;28;20448;-65
2021/05/23 06:27:09;;;;;;;1999.90;999.90;;;;;;;15.59;68.92;97927.84;5033480;28;20111;-65
2021/05/23 06:29:36;;;;;;;1999.90;999.90;;;;;;;16.05;68.50;97929.84;5033640;28;20045;-65
2021/05/23 06:32:03;;;;;;;1999.90;999.90;;;;;;;15.43;68.33;97930.72;5032310;28;20111;-65
2021/05/23 06:34:30;;;;;;;1999.90;999.90;;;;;;;14.89;70.44;97930.44;5032619;28;20053;-65
2021/05/23 06:36:57;;;;;;;1999.90;999.90;;;;;;;15.05;71.33;97924.81;5032151;28;20099;-65
2021/05/23 06:39:23;;;;;;;1999.90;999.90;;;;;;;15.70;69.81;97931.63;5032131;28;20103;-66
2021/05/23 06:41:50;;;;;;;1999.90;999.90;;;;;;;16.36;67.03;97925.97;5031437;28;20060;-66
2021/05/23 06:44:18;;;;;;;1999.90;999.90;;;;;;;16.61;66.38;97925.56;5033128;28;20049;-66
2021/05/23 06:46:45;;;;;;;1999.90;999.90;;;;;;;16.58;66.50;97929.13;5030395;28;20099;-66
2021/05/23 06:49:12;;;;;;;1999.90;999.90;;;;;;;16.33;66.19;97924.78;5032940;28;20045;-66
2021/05/23 06:51:39;;;;;;;1999.90;999.90;;;;;;;16.22;66.92;97937.72;5032489;28;20115;-66
2021/05/23 06:54:06;;;;;;;1999.90;999.90;;;;;;;16.42;67.55;97932.88;5030371;28;20092;-66
2021/05/23 06:56:33;;;;;;;1999.90;999.90;;;;;;;16.63;66.80;97937.97;5033989;28;20110;-66
2021/05/23 06:58:59;;;;;;;1999.90;999.90;;;;;;;16.54;68.29;97943.81;5033156;28;20041;-66
2021/05/23 07:01:26;;;;;;;1999.90;999.90;;;;;;;16.64;67.15;97939.59;5032321;28;20613;-66
2021/05/23 07:03:53;;;;;;;1999.90;999.90;;;;;;;16.44;67.32;97933.31;5032334;28;20107;-66
2021/05/23 07:06:19;;;;;;;1999.90;999.90;;;;;;;16.69;66.67;97935.66;5032417;28;20111;-66
2021/05/23 07:08:46;;;;;;;1999.90;999.90;;;;;;;16.71;66.32;97942.47;5031618;28;20048;-66
2021/05/23 07:11:12;;;;;;;1999.90;999.90;;;;;;;16.96;65.71;97944.06;5033952;28;20057;-67
2021/05/23 07:13:39;;;;;;;1999.90;999.90;;;;;;;17.49;65.11;97943.91;5032560;28;20045;-65
2021/05/23 07:16:06;;;;;;;1999.90;999.90;;;;;;;17.39;64.55;97944.59;5032357;28;20369;-65
2021/05/23 07:18:33;;;;;;;1999.90;999.90;;;;;;;17.71;65.11;97946.94;5032855;28;20057;-65
2021/05/23 07:20:59;;;;;;;1999.90;999.90;;;;;;;17.74;63.12;97957.34;5031309;28;20111;-65
2021/05/23 07:23:27;;;;;;;1999.90;999.90;;;;;;;17.96;63.82;97952.81;5033249;28;20057;-65
2021/05/23 07:25:54;;;;;;;1999.90;999.90;;;;;;;17.68;64.47;97953.28;5034152;28;20103;-65
2021/05/23 07:28:21;;;;;;;1999.90;999.90;;;;;;;18.00;63.65;97962.06;5029023;28;20434;-65
2021/05/23 07:30:48;;;;;;;1999.90;999.90;;;;;;;17.57;63.45;97962.38;5025311;28;20126;-65
2021/05/23 07:33:15;;;;;;;1999.90;999.90;;;;;;;17.41;64.84;97958.97;5029583;28;20119;-65
2021/05/23 07:35:42;;;;;;;1999.90;999.90;;;;;;;17.35;63.59;97960.50;5028577;28;20092;-65
2021/05/23 07:38:10;;;;;;;1999.90;999.90;;;;;;;17.48;63.80;97958.28;5028567;28;20103;-65
2021/05/23 07:40:36;;;;;;;1999.90;999.90;;;;;;;17.12;64.12;97952.22;5027953;28;20123;-64
2021/05/23 07:43:03;;;;;;;1999.90;999.90;;;;;;;17.66;63.89;97959.28;5028221;28;20061;-65
2021/05/23 07:45:31;;;;;;;1999.90;999.90;;;;;;;17.91;63.74;97959.56;5029532;28;20096;-65
2021/05/23 07:47:58;;;;;;;1999.90;999.90;;;;;;;17.99;62.94;97959.66;5029234;28;20111;-65
2021/05/23 07:50:25;;;;;;;1999.90;999.90;;;;;;;18.34;61.17;97947.97;5028300;28;20122;-66
2021/05/23 07:52:51;;;;;;;1999.90;999.90;;;;;;;18.05;60.97;97947.69;5029005;28;20251;-66
2021/05/23 07:55:18;;;;;;;1999.90;999.90;;;;;;;17.83;60.97;97957.03;5028611;28;20183;-66
2021/05/23 07:57:46;;;;;;;1999.90;999.90;;;;;;;18.04;60.19;97948.09;5028174;28;20049;-65
2021/05/23 08:00:14;;;;;;;1999.90;999.90;;;;;;;18.00;60.54;97950.03;5028663;28;20139;-65
2021/05/23 08:02:42;;;;;;;1999.90;999.90;;;;;;;18.19;59.04;97958.25;5025490;28;20084;-65
2021/05/23 08:05:09;;;;;;;1999.90;999.90;;;;;;;18.18;58.92;97959.41;5027234;28;20595;-65
2021/05/23 08:07:36;;;;;;;1999.90;999.90;;;;;;;18.00;60.35;97953.66;5027020;28;20119;-66
2021/05/23 08:10:04;;;;;;;1999.90;999.90;;;;;;;18.57;59.38;97949.72;5027602;28;20107;-66
2021/05/23 08:12:32;;;;;;;1999.90;999.90;;;;;;;18.77;58.31;97959.47;5027265;28;20054;-66
2021/05/23 08:15:00;;;;;;;1999.90;999.90;;;;;;;17.65;58.41;97957.66;5029480;28;20056;-66
2021/05/23 08:17:27;;;;;;;1999.90;999.90;;;;;;;17.93;58.84;97957.19;5028490;28;20057;-66
2021/05/23 08:19:54;;;;;;;1999.90;999.90;;;;;;;18.50;57.24;97953.28;5027285;28;20049;-66
2021/05/23 08:22:20;;;;;;;1999.90;999.90;;;;;;;18.36;58.18;97955.97;5029232;28;20130;-66
2021/05/23 08:24:47;;;;;;;1999.90;999.90;;;;;;;18.15;58.73;97957.41;5028351;28;20045;-66
2021/05/23 08:27:13;;;;;;;1999.90;999.90;;;;;;;18.30;58.63;97953.53;5027696;28;20133;-66
2021/05/23 08:29:40;;;;;;;1999.90;999.90;;;;;;;17.74;59.49;97965.75;5028380;28;20041;-65
2021/05/23 08:32:08;;;;;;;1999.90;999.90;;;;;;;17.67;58.36;97963.69;5027339;28;20053;-65
2021/05/23 08:34:34;;;;;;;1999.90;999.90;;;;;;;18.35;57.15;97951.56;5026861;28;20609;-65
2021/05/23 08:37:01;;;;;;;1999.90;999.90;;;;;;;18.80;58.77;97963.47;5027017;28;20049;-64
2021/05/23 08:39:30;;;;;;;1999.90;999.90;;;;;;;18.53;57.30;97966.50;5026561;28;20053;-64
2021/05/23 08:41:56;;;;;;;1999.90;999.90;;;;;;;18.60;57.63;97969.34;5028063;28;20057;-65
2021/05/23 08:44:23;;;;;;;1999.90;999.90;;;;;;;18.95;57.53;97965.22;5028194;28;20053;-65
2021/05/23 08:46:52;;;;;;;1999.90;999.90;;;;;;;19.09;57.68;97974.91;5027626;28;20053;-65
2021/05/23 08:49:24;;;;;;;1999.90;999.90;;;;;;;19.29;56.80;97979.03;5028237;28;20053;-65
2021/05/23 08:51:52;;;;;;;1999.90;999.90;;;;;;;18.84;56.44;97983.91;5027176;28;20447;-65
2021/05/23 08:54:19;;;;;;;1999.90;999.90;;;;;;;19.03;57.16;97987.69;5026893;28;20052;-65
2021/05/23 08:56:49;;;;;;;1999.90;999.90;;;;;;;19.56;55.49;97994.72;5028868;28;20053;-65
2021/05/23 08:59:17;;;;;;;1999.90;999.90;;;;;;;19.44;56.21;97987.47;5026820;28;20124;-65
2021/05/23 09:01:44;;;;;;;1999.90;999.90;;;;;;;18.56;56.68;97988.09;5027058;28;20508;-65
2021/05/23 09:04:16;;;;;;;1999.90;999.90;;;;;;;18.98;58.39;97998.06;5027784;28;20053;-65
2021/05/23 09:06:43;;;;;;;1999.90;999.90;;;;;;;18.65;59.52;97997.00;5025187;28;21524;-65
2021/05/23 09:09:12;;;;;;;1999.90;999.90;;;;;;;19.18;58.24;97995.75;5028343;28;20100;-65
2021/05/23 09:11:50;;;;;;;1999.90;999.90;;;;;;;19.81;57.04;97997.66;5025743;28;20442;-65
2021/05/23 09:14:40;;;;;;;1999.90;999.90;;;;;;;19.22;56.66;98001.41;5026601;28;20388;-65
2021/05/23 09:17:18;;;;;;;1999.90;999.90;;;;;;;18.71;57.78;98005.81;5025867;28;20100;-65
2021/05/23 09:19:46;;;;;;;1999.90;999.90;;;;;;;18.68;60.38;98005.81;5028132;28;20057;-66
2021/05/23 09:22:15;;;;;;;1999.90;999.90;;;;;;;18.35;60.22;98013.13;5025135;28;20061;-65
2021/05/23 09:24:55;;;;;;;1999.90;999.90;;;;;;;18.22;62.36;98019.03;5026390;28;20049;-65
2021/05/23 09:27:28;;;;;;;1999.90;999.90;;;;;;;18.61;62.10;98017.75;5027507;28;20065;-65
2021/05/23 09:30:05;;;;;;;1999.90;999.90;;;;;;;18.27;62.04;98015.84;5025750;28;20053;-65
2021/05/23 09:32:41;;;;;;;1999.90;999.90;;;;;;;18.03;64.94;98022.00;5029648;28;20552;-65
2021/05/23 09:35:10;;;;;;;1999.90;999.90;;;;;;;17.81;64.61;98021.75;5032638;28;20053;-65
2021/05/23 09:37:38;;;;;;;1999.90;999.90;;;;;;;17.39;65.75;98017.25;5031874;28;20139;-65
2021/05/23 09:40:15;;;;;;;1999.90;999.90;;;;;;;17.48;65.30;98014.97;5030566;28;20107;-64
2021/05/23 09:42:47;;;;;;;1999.90;999.90;;;;;;;17.50;64.30;98026.56;5031667;28;20412;-65
2021/05/23 09:45:15;;;;;;;1999.90;999.90;;;;;;;17.27;65.17;98031.44;5027795;28;20111;-65
2021/05/23 09:47:58;;;;;;;1999.90;999.90;;;;;;;17.12;65.68;98033.22;5028439;28;20057;-65
2021/05/23 09:50:40;;;;;;;1999.90;999.90;;;;;;;17.01;65.60;98031.09;5028769;28;20049;-65
2021/05/23 09:53:23;;;;;;;1999.90;999.90;;;;;;;17.28;64.27;98038.66;5030597;28;20488;-65
2021/05/23 09:56:13;;;;;;;1999.90;999.90;;;;;;;17.15;64.09;98027.72;5029773;28;20049;-65
2021/05/23 09:58:43;;;;;;;1999.90;999.90;;;;;;;17.17;65.01;98036.50;5029133;28;20050;-63
2021/05/23 10:01:34;;;;;;;1999.90;999.90;;;;;;;16.96;65.17;98039.00;5029408;28;20465;-64
2021/05/23 10:04:02;;;;;;;1999.90;999.90;;;;;;;16.77;65.05;98037.06;5028991;28;20053;-64
2021/05/23 10:06:30;;;;;;;1999.90;999.90;;;;;;;16.90;64.42;98042.09;5029689;28;20056;-64
2021/05/23 10:08:58;;;;;;;1999.90;999.90;;;;;;;16.60;65.77;98044.78;5030989;28;20049;-65
2021/05/23 10:11:26;;;;;;;1999.90;999.90;;;;;;;16.73;66.37;98037.00;5027588;28;20100;-64
2021/05/23 10:13:53;;;;;;;1999.90;999.90;;;;;;;16.50;67.49;98046.22;5027951;28;20061;-63
2021/05/23 10:16:22;;;;;;;1999.90;999.90;;;;;;;16.68;67.70;98042.91;5029669;28;20049;-64
2021/05/23 10:18:49;;;;;;;1999.90;999.90;;;;;;;16.48;67.38;98051.38;5028850;28;20053;-64
2021/05/23 10:21:16;;;;;;;1999.90;999.90;;;;;;;16.15;67.52;98058.38;5027395;28;20429;-64
2021/05/23 10:23:48;;;;;;;1999.90;999.90;;;;;;;16.34;68.61;98051.13;5029961;28;20045;-65
2021/05/23 10:26:21;;;;;;;1999.90;999.90;;;;;;;16.46;68.09;98061.28;5028320;28;20045;-64
2021/05/23 10:28:50;;;;;;;1999.90;999.90;;;;;;;16.70;67.15;98057.28;5028285;28;20053;-64
2021/05/23 10:31:31;;;;;;;1999.90;999.90;;;;;;;17.26;65.14;98050.19;5030041;28;20061;-65
2021/05/23 10:33:58;;;;;;;1999.90;999.90;;;;;;;16.75;65.89;98062.59;5029632;28;20057;-64
2021/05/23 10:36:31;;;;;;;1999.90;999.90;;;;;;;17.14;65.54;98050.44;5029467;28;20045;-65
2021/05/23 10:39:00;;;;;;;1999.90;999.90;;;;;;;17.01;64.82;98056.22;5029771;28;20116;-64
2021/05/23 10:41:27;;;;;;;1999.90;999.90;;;;;;;16.64;65.04;98053.22;5028110;28;20053;-64
2021/05/23 10:44:05;;;;;;;1999.90;999.90;;;;;;;16.68;65.93;98054.88;5027193;28;20056;-64
2021/05/23 10:46:46;;;;;;;1999.90;999.90;;;;;;;16.02;65.67;98054.94;5029369;28;20123;-63
2021/05/23 10:49:13;;;;;;;1999.90;999.90;;;;;;;16.14;64.73;98056.75;5027601;28;20071;-64
2021/05/23 10:51:51;;;;;;;1999.90;999.90;;;;;;;16.24;65.26;98063.72;5027626;28;20356;-64
2021/05/23 10:54:18;;;;;;;1999.90;999.90;;;;;;;16.67;64.41;98066.41;5029416;28;20327;-64
2021/05/23 10:56:45;;;;;;;1999.90;999.90;;;;;;;16.60;64.48;98077.47;5028700;28;20057;-64
2021/05/23 10:59:14;;;;;;;1999.90;999.90;;;;;;;16.70;64.25;98076.84;5027539;28;20049;-64
2021/05/23 11:01:52;;;;;;;1999.90;999.90;;;;;;;16.73;63.04;98087.25;5029356;28;20393;-64
2021/05/23 11:04:23;;;;;;;1999.90;999.90;;;;;;;16.27;63.16;98090.03;5027936;28;20056;-64